Time;durP1;ratioP1;P1;durP2;ratioP2;P2;SDS_P1;SDS_P2;PMS_P1;PMS_P2;Temp;Humidity;BMP_temperature;BMP_pressure;BME280_temperature;BME280_humidity;BME280_pressure;Samples;Min_cycle;Max_cycle;Signal;HPM_P1;HPM_P2
2021/04/16 00:01:48;;;;;;;11.02;4.70;;;2.00;99.90;;;;;;5017992;28;20033;-59
2021/04/16 00:04:14;;;;;;;8.23;3.22;;;1.90;99.90;;;;;;5018553;28;20033;-60
2021/04/16 00:06:39;;;;;;;8.35;3.67;;;1.90;99.90;;;;;;5018797;28;20026;-59
2021/04/16 00:09:05;;;;;;;9.18;3.80;;;1.80;99.90;;;;;;5025334;28;20049;-59
2021/04/16 00:11:31;;;;;;;8.52;4.07;;;1.70;99.90;;;;;;5026535;28;20140;-58
2021/04/16 00:13:57;;;;;;;7.03;4.18;;;1.80;99.90;;;;;;5020480;28;20034;-60
2021/04/16 00:16:26;;;;;;;8.88;4.13;;;1.70;99.90;;;;;;5012454;28;20121;-60
2021/04/16 00:18:51;;;;;;;6.70;3.83;;;1.70;99.90;;;;;;5020735;28;20491;-58
2021/04/16 00:21:17;;;;;;;5.20;3.63;;;1.60;99.90;;;;;;5016772;28;20112;-61
2021/04/16 00:23:44;;;;;;;11.83;3.83;;;1.60;99.90;;;;;;5023966;28;20394;-57
2021/04/16 00:26:12;;;;;;;8.57;3.97;;;1.60;99.90;;;;;;5024166;28;20098;-61
2021/04/16 00:28:38;;;;;;;8.13;3.67;;;1.70;99.90;;;;;;5027275;28;20033;-60
2021/04/16 00:31:15;;;;;;;11.93;3.70;;;1.70;99.90;;;;;;5023142;28;20041;-59
2021/04/16 00:33:41;;;;;;;9.25;3.58;;;1.70;99.90;;;;;;5020457;28;20045;-59
2021/04/16 00:36:08;;;;;;;7.18;4.30;;;1.70;99.90;;;;;;5011825;28;20042;-58
2021/04/16 00:38:34;;;;;;;9.55;4.05;;;1.70;99.90;;;;;;5012912;28;20038;-59
2021/04/16 00:41:03;;;;;;;6.70;3.75;;;1.70;99.90;;;;;;5011207;28;20022;-59
2021/04/16 00:43:31;;;;;;;8.80;3.70;;;1.70;99.90;;;;;;5020747;28;20400;-61
2021/04/16 00:46:12;;;;;;;10.68;3.30;;;1.70;99.90;;;;;;5023214;28;20049;-58
2021/04/16 00:49:00;;;;;;;7.05;4.00;;;1.60;99.90;;;;;;5013438;28;20105;-57
2021/04/16 00:51:37;;;;;;;6.45;3.40;;;1.70;99.90;;;;;;5007746;28;20033;-58
2021/04/16 00:54:05;;;;;;;7.55;3.70;;;1.70;99.90;;;;;;5010931;28;20026;-58
2021/04/16 00:56:31;;;;;;;5.50;3.35;;;1.70;99.90;;;;;;5016860;28;20523;-58
2021/04/16 00:58:57;;;;;;;10.23;3.55;;;1.70;99.90;;;;;;5014092;28;20022;-59
2021/04/16 01:01:25;;;;;;;8.55;3.92;;;1.80;99.90;;;;;;5026840;28;20040;-59
2021/04/16 01:03:51;;;;;;;6.55;3.90;;;2.00;99.90;;;;;;5020690;28;20022;-59
2021/04/16 01:06:20;;;;;;;7.28;3.50;;;2.00;99.90;;;;;;5025989;28;20061;-59
2021/04/16 01:08:45;;;;;;;11.23;3.72;;;2.00;99.90;;;;;;5020383;28;20109;-61
2021/04/16 01:11:11;;;;;;;8.57;3.50;;;1.90;99.90;;;;;;5027028;28;20113;-59
2021/04/16 01:13:38;;;;;;;5.60;3.15;;;1.90;99.90;;;;;;5019879;28;20533;-61
2021/04/16 01:16:09;;;;;;;5.60;3.03;;;2.10;99.90;;;;;;5013353;28;20030;-59
2021/04/16 01:18:39;;;;;;;12.43;6.05;;;2.20;99.90;;;;;;5014231;28;20045;-61
2021/04/16 01:21:12;;;;;;;7.07;3.63;;;2.20;99.90;;;;;;5021864;28;20113;-59
2021/04/16 01:23:41;;;;;;;7.00;4.00;;;2.40;99.90;;;;;;5018979;28;20026;-60
2021/04/16 01:26:08;;;;;;;6.53;3.67;;;2.40;99.90;;;;;;5018923;28;20273;-62
2021/04/16 01:28:33;;;;;;;5.90;2.92;;;2.60;99.90;;;;;;5025048;28;20017;-57
2021/04/16 01:31:06;;;;;;;7.35;3.40;;;2.70;99.90;;;;;;5019634;28;20036;-61
2021/04/16 01:33:34;;;;;;;5.30;3.10;;;2.90;99.90;;;;;;5011824;28;20036;-57
2021/04/16 01:36:00;;;;;;;6.35;4.35;;;2.90;99.90;;;;;;5013055;28;20039;-58
2021/04/16 01:38:26;;;;;;;7.20;3.70;;;3.00;99.90;;;;;;5015959;28;20033;-58
2021/04/16 01:40:53;;;;;;;7.10;3.05;;;3.10;99.90;;;;;;5020746;28;20487;-58
2021/04/16 01:43:31;;;;;;;8.90;3.65;;;3.10;99.90;;;;;;5019576;28;20032;-59
2021/04/16 01:46:05;;;;;;;7.30;3.33;;;3.10;99.90;;;;;;5024812;28;20434;-58
2021/04/16 01:48:46;;;;;;;8.40;3.65;;;3.00;99.90;;;;;;5022735;28;20013;-60
2021/04/16 01:51:18;;;;;;;5.55;3.33;;;2.80;99.90;;;;;;5017534;28;20526;-58
2021/04/16 01:53:44;;;;;;;5.57;3.58;;;2.70;99.90;;;;;;5019648;28;20058;-58
2021/04/16 01:56:11;;;;;;;6.63;3.45;;;2.60;99.90;;;;;;5010054;28;20076;-60
2021/04/16 01:58:36;;;;;;;5.22;3.42;;;2.60;99.90;;;;;;5012243;28;20014;-61
2021/04/16 02:01:05;;;;;;;7.88;4.00;;;2.50;99.90;;;;;;5026190;28;20025;-60
2021/04/16 02:03:30;;;;;;;8.30;3.67;;;2.50;99.90;;;;;;5018340;28;20025;-60
2021/04/16 02:05:56;;;;;;;8.70;3.67;;;2.50;99.90;;;;;;5020671;28;20033;-58
2021/04/16 02:08:22;;;;;;;8.35;4.00;;;2.40;99.90;;;;;;5019648;28;20108;-59
2021/04/16 02:10:48;;;;;;;6.35;3.63;;;2.40;99.90;;;;;;5021472;28;20026;-59
2021/04/16 02:13:15;;;;;;;6.20;3.63;;;2.40;99.90;;;;;;5020967;28;20075;-60
2021/04/16 02:15:40;;;;;;;6.47;3.63;;;2.40;99.90;;;;;;5022327;28;20021;-59
2021/04/16 02:18:06;;;;;;;12.27;3.65;;;2.50;99.90;;;;;;5009923;28;20032;-59
2021/04/16 02:20:33;;;;;;;8.32;3.63;;;2.60;99.90;;;;;;5017074;28;20029;-60
2021/04/16 02:22:58;;;;;;;5.57;3.60;;;2.70;99.90;;;;;;5020894;28;20022;-56
2021/04/16 02:25:25;;;;;;;6.80;3.78;;;2.90;99.90;;;;;;5021920;28;20068;-60
2021/04/16 02:27:51;;;;;;;6.25;3.60;;;3.10;99.90;;;;;;5019792;28;20124;-59
2021/04/16 02:30:24;;;;;;;5.93;3.35;;;3.10;99.90;;;;;;5017654;28;20414;-58
2021/04/16 02:32:49;;;;;;;9.00;3.92;;;3.20;99.90;;;;;;5020209;28;20120;-59
2021/04/16 02:35:16;;;;;;;6.30;3.22;;;3.30;99.90;;;;;;5019249;28;20152;-58
2021/04/16 02:37:41;;;;;;;11.13;3.63;;;3.30;99.90;;;;;;5021892;28;20034;-58
2021/04/16 02:40:10;;;;;;;6.93;4.25;;;3.30;99.90;;;;;;5020929;28;20545;-58
2021/04/16 02:42:35;;;;;;;7.18;3.53;;;3.30;99.90;;;;;;5015410;28;20068;-58
2021/04/16 02:45:01;;;;;;;11.30;3.63;;;3.30;99.90;;;;;;5020804;28;20065;-60
2021/04/16 02:47:27;;;;;;;6.65;3.65;;;3.30;99.90;;;;;;5018667;28;20079;-58
2021/04/16 02:49:52;;;;;;;5.32;3.40;;;3.20;99.90;;;;;;5015431;28;20102;-60
2021/04/16 02:52:18;;;;;;;6.78;3.03;;;3.20;99.90;;;;;;5021443;28;20053;-58
2021/04/16 02:54:44;;;;;;;6.45;3.60;;;3.10;99.90;;;;;;5024616;28;20041;-57
2021/04/16 02:57:09;;;;;;;5.60;3.15;;;3.00;99.90;;;;;;5021136;28;20025;-59
2021/04/16 02:59:35;;;;;;;7.45;3.72;;;3.10;99.90;;;;;;5013881;28;20045;-58
2021/04/16 03:02:01;;;;;;;8.25;3.55;;;3.00;99.90;;;;;;5018059;28;20029;-61
2021/04/16 03:04:27;;;;;;;7.55;4.10;;;3.00;99.90;;;;;;5020142;28;20021;-61
2021/04/16 03:06:53;;;;;;;6.47;2.92;;;3.20;99.90;;;;;;5020683;28;20560;-58
2021/04/16 03:09:19;;;;;;;5.93;3.22;;;3.30;99.90;;;;;;5020851;28;20382;-59
2021/04/16 03:11:44;;;;;;;7.90;3.78;;;3.40;99.90;;;;;;5021855;28;20038;-55
2021/04/16 03:14:10;;;;;;;6.00;3.33;;;3.50;99.90;;;;;;5004927;28;20061;-61
2021/04/16 03:16:36;;;;;;;5.38;3.10;;;3.50;99.90;;;;;;5009765;28;20041;-58
2021/04/16 03:19:04;;;;;;;9.75;3.05;;;3.50;99.90;;;;;;5011296;28;20037;-60
2021/04/16 03:21:30;;;;;;;5.38;2.83;;;3.50;99.90;;;;;;5020264;28;20807;-58
2021/04/16 03:23:55;;;;;;;5.78;2.50;;;3.60;99.90;;;;;;5020531;28;20029;-58
2021/04/16 03:26:22;;;;;;;5.05;3.15;;;3.60;99.90;;;;;;5020552;28;20048;-54
2021/04/16 03:28:56;;;;;;;4.45;2.95;;;3.70;99.90;;;;;;5023511;28;20078;-59
2021/04/16 03:31:23;;;;;;;6.82;2.28;;;3.70;99.90;;;;;;5018105;28;20037;-59
2021/04/16 03:33:48;;;;;;;5.28;2.50;;;3.70;99.90;;;;;;5023959;28;20029;-59
2021/04/16 03:36:14;;;;;;;5.55;2.55;;;3.70;99.90;;;;;;5015056;28;20033;-58
2021/04/16 03:38:40;;;;;;;5.30;2.05;;;3.80;99.90;;;;;;5010265;28;20026;-57
2021/04/16 03:41:05;;;;;;;4.20;2.20;;;3.80;99.90;;;;;;5023165;28;20022;-60
2021/04/16 03:43:31;;;;;;;4.30;2.35;;;3.80;99.90;;;;;;5027583;28;20025;-60
2021/04/16 03:45:56;;;;;;;4.20;2.20;;;3.70;99.90;;;;;;5022642;28;20023;-61
2021/04/16 03:48:22;;;;;;;4.80;2.53;;;3.70;99.90;;;;;;5023431;28;20080;-61
2021/04/16 03:50:48;;;;;;;6.00;2.72;;;3.70;99.90;;;;;;5028180;28;20026;-60
2021/04/16 03:53:13;;;;;;;8.75;3.22;;;3.80;99.90;;;;;;5021228;28;20483;-61
2021/04/16 03:55:40;;;;;;;4.82;2.53;;;3.80;99.90;;;;;;5024961;28;20097;-57
2021/04/16 03:58:06;;;;;;;3.28;2.03;;;3.80;99.90;;;;;;5021999;28;20025;-57
2021/04/16 04:00:35;;;;;;;5.03;2.28;;;3.80;99.90;;;;;;5012752;28;20057;-57
2021/04/16 04:03:01;;;;;;;8.77;2.60;;;3.70;99.90;;;;;;5014496;28;20053;-58
2021/04/16 04:05:27;;;;;;;5.38;2.67;;;3.80;99.90;;;;;;5025012;28;20494;-57
2021/04/16 04:07:53;;;;;;;3.63;2.30;;;3.80;99.90;;;;;;5016080;28;20589;-61
2021/04/16 04:10:21;;;;;;;3.88;2.42;;;3.80;99.90;;;;;;5028311;28;20026;-59
2021/04/16 04:12:48;;;;;;;4.18;3.03;;;3.80;99.90;;;;;;5016249;28;20056;-58
2021/04/16 04:15:14;;;;;;;7.07;2.60;;;3.70;99.90;;;;;;5024359;28;20033;-58
2021/04/16 04:17:40;;;;;;;4.47;2.80;;;3.80;99.90;;;;;;5020295;28;20448;-58
2021/04/16 04:20:15;;;;;;;3.78;2.40;;;3.80;99.90;;;;;;5023753;28;20052;-59
2021/04/16 04:22:40;;;;;;;6.53;2.70;;;3.80;99.90;;;;;;5022410;28;20025;-57
2021/04/16 04:25:07;;;;;;;4.47;2.75;;;3.80;99.90;;;;;;5023559;28;20079;-61
2021/04/16 04:27:32;;;;;;;5.85;3.20;;;3.70;99.90;;;;;;5023072;28;20034;-61
2021/04/16 04:29:58;;;;;;;8.10;3.33;;;3.70;99.90;;;;;;5021984;28;20107;-59
2021/04/16 04:32:23;;;;;;;5.82;3.03;;;3.70;99.90;;;;;;5012862;28;20036;-58
2021/04/16 04:34:49;;;;;;;7.82;3.50;;;3.70;99.90;;;;;;5011747;28;20038;-58
2021/04/16 04:37:14;;;;;;;6.65;4.03;;;3.80;99.90;;;;;;5011724;28;20073;-58
2021/04/16 04:39:43;;;;;;;6.28;3.10;;;3.80;99.90;;;;;;5019630;28;20068;-59
2021/04/16 04:42:09;;;;;;;4.70;2.70;;;3.80;99.90;;;;;;5012111;28;20017;-50
2021/04/16 04:44:34;;;;;;;13.05;3.78;;;3.80;99.90;;;;;;5011913;28;20030;-58
2021/04/16 04:47:00;;;;;;;4.60;3.25;;;3.90;99.90;;;;;;5009768;28;20049;-57
2021/04/16 04:49:26;;;;;;;6.25;3.63;;;3.90;99.90;;;;;;5011811;28;20036;-59
2021/04/16 04:52:12;;;;;;;6.85;4.60;;;3.90;99.90;;;;;;5011820;28;20079;-59
2021/04/16 04:54:39;;;;;;;5.75;3.13;;;3.90;99.90;;;;;;5011554;28;20065;-60
2021/04/16 04:57:05;;;;;;;5.95;3.65;;;3.90;99.90;;;;;;5010962;28;20628;-59
2021/04/16 04:59:30;;;;;;;19.25;4.68;;;3.90;99.90;;;;;;5018962;28;20025;-60
2021/04/16 05:01:56;;;;;;;7.15;3.72;;;3.90;99.90;;;;;;5021768;28;20033;-60
2021/04/16 05:04:21;;;;;;;6.85;4.07;;;3.90;99.90;;;;;;5016673;28;20025;-58
2021/04/16 05:06:47;;;;;;;8.40;4.50;;;4.00;99.90;;;;;;5021904;28;20040;-58
2021/04/16 05:09:12;;;;;;;5.97;3.75;;;4.00;99.90;;;;;;5015473;28;20040;-57
2021/04/16 05:11:38;;;;;;;6.40;4.30;;;4.00;99.90;;;;;;5020263;28;20034;-58
2021/04/16 05:14:03;;;;;;;9.50;4.57;;;4.20;99.90;;;;;;5022805;28;20033;-58
2021/04/16 05:16:29;;;;;;;6.75;3.70;;;4.30;99.90;;;;;;5019580;28;20026;-55
2021/04/16 05:18:56;;;;;;;7.55;3.72;;;4.30;99.90;;;;;;5023568;28;20048;-59
2021/04/16 05:21:22;;;;;;;11.73;4.65;;;4.50;99.90;;;;;;5013535;28;20033;-60
2021/04/16 05:23:47;;;;;;;5.32;3.72;;;4.70;99.90;;;;;;5020690;28;20017;-53
2021/04/16 05:26:13;;;;;;;14.18;6.25;;;4.80;99.90;;;;;;5024648;28;20367;-61
2021/04/16 05:28:38;;;;;;;8.95;5.15;;;5.00;99.90;;;;;;5022431;28;20553;-61
2021/04/16 05:31:04;;;;;;;7.88;4.35;;;5.20;99.90;;;;;;5010498;28;20446;-60
2021/04/16 05:33:29;;;;;;;7.10;3.85;;;5.40;99.90;;;;;;5023641;28;20037;-59
2021/04/16 05:35:55;;;;;;;5.95;3.42;;;5.60;99.90;;;;;;5018257;28;20387;-57
2021/04/16 05:38:20;;;;;;;8.35;4.75;;;5.70;99.90;;;;;;5012823;28;20384;-60
2021/04/16 05:40:46;;;;;;;7.13;4.55;;;5.90;99.90;;;;;;5018714;28;20033;-58
2021/04/16 05:43:11;;;;;;;6.20;3.60;;;6.10;99.90;;;;;;5024210;28;20028;-60
2021/04/16 05:45:37;;;;;;;7.55;3.90;;;6.20;99.90;;;;;;5022544;28;20025;-60
2021/04/16 05:48:03;;;;;;;8.38;3.50;;;6.50;99.90;;;;;;5019569;28;20030;-59
2021/04/16 05:50:28;;;;;;;5.25;3.38;;;6.80;99.90;;;;;;5022463;28;20048;-60
2021/04/16 05:52:54;;;;;;;8.73;4.28;;;6.90;99.90;;;;;;5015905;28;20080;-61
2021/04/16 05:55:20;;;;;;;7.30;4.22;;;7.10;99.50;;;;;;5016407;28;20568;-59
2021/04/16 05:57:46;;;;;;;10.43;3.67;;;7.20;99.90;;;;;;5014220;28;20121;-59
2021/04/16 06:00:12;;;;;;;5.85;3.63;;;7.30;99.20;;;;;;5013982;28;20391;-60
2021/04/16 06:02:39;;;;;;;5.43;3.78;;;7.30;98.60;;;;;;4984522;28;20038;-60
2021/04/16 06:05:14;;;;;;;4.93;3.33;;;7.40;98.40;;;;;;5006986;28;20030;-60
2021/04/16 06:07:41;;;;;;;8.07;3.53;;;7.60;97.90;;;;;;5018092;28;20018;-59
2021/04/16 06:10:08;;;;;;;7.13;3.70;;;8.00;96.90;;;;;;5020342;28;20030;-59
2021/04/16 06:12:34;;;;;;;6.13;3.17;;;8.10;96.50;;;;;;5016773;28;20471;-59
2021/04/16 06:15:01;;;;;;;11.52;3.33;;;8.10;95.80;;;;;;5014927;28;20525;-61
2021/04/16 06:17:26;;;;;;;5.63;3.38;;;8.00;95.80;;;;;;5023113;28;20156;-61
2021/04/16 06:19:52;;;;;;;6.95;3.35;;;7.70;96.10;;;;;;5019196;28;20108;-62
2021/04/16 06:22:20;;;;;;;6.13;3.70;;;7.40;96.60;;;;;;5025306;28;20030;-61
2021/04/16 06:24:48;;;;;;;6.78;3.47;;;7.30;97.30;;;;;;5015011;28;20578;-62
2021/04/16 06:27:14;;;;;;;5.07;3.20;;;7.10;97.70;;;;;;5009593;28;20071;-61
2021/04/16 06:29:40;;;;;;;4.95;3.00;;;7.00;97.70;;;;;;5015446;28;20520;-61
2021/04/16 06:32:06;;;;;;;6.10;2.80;;;6.80;97.70;;;;;;5016918;28;20029;-61
2021/04/16 06:34:32;;;;;;;5.70;3.00;;;6.80;97.70;;;;;;5015126;28;20491;-61
2021/04/16 06:36:57;;;;;;;10.65;3.05;;;6.70;98.40;;;;;;5018229;28;20033;-60
2021/04/16 06:39:23;;;;;;;5.25;3.17;;;6.60;98.20;;;;;;5023921;28;20037;-61
2021/04/16 06:41:50;;;;;;;4.90;2.97;;;6.70;98.30;;;;;;5013048;28;20427;-59
2021/04/16 06:44:29;;;;;;;5.47;3.03;;;6.60;98.30;;;;;;5018652;28;20029;-59
2021/04/16 06:47:09;;;;;;;3.38;2.20;;;6.70;99.00;;;;;;5014403;28;20045;-61
2021/04/16 06:49:36;;;;;;;3.63;2.10;;;6.80;98.10;;;;;;5016218;28;20030;-57
2021/04/16 06:52:29;;;;;;;5.13;2.80;;;6.90;98.40;;;;;;5016111;28;20053;-59
2021/04/16 06:55:12;;;;;;;8.20;2.63;;;6.80;98.40;;;;;;5006106;28;20372;-59
2021/04/16 06:57:50;;;;;;;3.65;2.70;;;7.00;98.10;;;;;;5007073;28;20022;-56
2021/04/16 07:00:27;;;;;;;6.70;2.47;;;7.20;97.20;;;;;;5009683;28;20566;-60
2021/04/16 07:03:16;;;;;;;6.40;2.67;;;7.20;98.30;;;;;;4997270;28;20046;-62
2021/04/16 07:05:57;;;;;;;3.17;2.08;;;7.30;97.30;;;;;;4991284;28;20042;-61
2021/04/16 07:08:37;;;;;;;5.63;2.60;;;7.30;97.40;;;;;;5009496;28;20048;-60
2021/04/16 07:11:22;;;;;;;2.72;2.03;;;7.30;97.30;;;;;;5017602;28;20030;-63
2021/04/16 07:13:48;;;;;;;5.78;2.67;;;7.20;96.70;;;;;;5014433;28;20030;-56
2021/04/16 07:16:16;;;;;;;6.90;2.28;;;7.10;96.90;;;;;;5012899;28;20025;-60
2021/04/16 07:18:45;;;;;;;3.88;2.15;;;7.20;97.20;;;;;;5016169;28;20022;-61
2021/04/16 07:21:15;;;;;;;5.43;2.50;;;7.40;96.70;;;;;;5017054;28;20024;-62
2021/04/16 07:23:47;;;;;;;5.43;2.55;;;7.50;96.40;;;;;;5013287;28;20395;-57
2021/04/16 07:26:26;;;;;;;5.57;2.72;;;7.50;96.40;;;;;;5013581;28;20025;-61
2021/04/16 07:28:54;;;;;;;7.35;2.97;;;7.60;97.80;;;;;;5015516;28;20058;-57
2021/04/16 07:31:41;;;;;;;8.50;3.25;;;7.70;96.90;;;;;;5012822;28;20024;-61
2021/04/16 07:34:28;;;;;;;3.78;2.67;;;7.60;97.10;;;;;;5015900;28;20414;-62
2021/04/16 07:37:05;;;;;;;3.80;2.85;;;8.00;96.30;;;;;;5019346;28;20044;-62
2021/04/16 07:39:34;;;;;;;6.68;2.85;;;8.20;95.90;;;;;;5013934;28;20033;-61
2021/04/16 07:42:08;;;;;;;6.22;3.15;;;8.30;95.90;;;;;;5017126;28;20022;-61
2021/04/16 07:44:40;;;;;;;9.23;3.08;;;8.30;95.50;;;;;;5016019;28;20088;-60
2021/04/16 07:47:12;;;;;;;4.22;2.88;;;8.40;95.50;;;;;;5022866;28;20475;-62
2021/04/16 07:49:38;;;;;;;6.05;2.83;;;8.30;96.00;;;;;;5010959;28;20030;-62
2021/04/16 07:52:30;;;;;;;4.35;2.80;;;8.20;96.50;;;;;;5016151;28;20049;-59
2021/04/16 07:55:14;;;;;;;5.70;3.08;;;8.50;96.00;;;;;;4986014;28;20038;-59
2021/04/16 07:58:02;;;;;;;3.85;2.42;;;8.50;95.30;;;;;;5019504;28;20018;-62
2021/04/16 08:00:54;;;;;;;5.30;2.70;;;8.50;95.60;;;;;;5003642;28;20034;-61
2021/04/16 08:03:25;;;;;;;3.80;2.42;;;8.30;96.20;;;;;;4989392;28;20399;-61
2021/04/16 08:05:57;;;;;;;4.45;2.58;;;8.40;95.60;;;;;;5015638;28;20045;-60
2021/04/16 08:08:34;;;;;;;6.85;2.60;;;8.40;95.50;;;;;;5020360;28;20053;-62
2021/04/16 08:10:59;;;;;;;6.05;2.83;;;8.20;96.00;;;;;;5008674;28;20510;-62
2021/04/16 08:13:28;;;;;;;3.88;2.40;;;8.30;95.80;;;;;;5012693;28;20033;-60
2021/04/16 08:16:09;;;;;;;4.13;2.60;;;8.60;95.90;;;;;;5011614;28;20054;-61
2021/04/16 08:18:35;;;;;;;5.20;3.10;;;8.70;97.00;;;;;;5023263;28;20036;-61
2021/04/16 08:21:09;;;;;;;4.68;3.00;;;8.80;96.30;;;;;;5019674;28;20026;-60
2021/04/16 08:23:50;;;;;;;8.43;2.45;;;9.10;95.20;;;;;;5023819;28;20387;-62
2021/04/16 08:26:18;;;;;;;4.80;2.22;;;9.30;94.30;;;;;;5020992;28;20036;-62
2021/04/16 08:29:08;;;;;;;3.85;1.80;;;9.50;94.00;;;;;;5016631;28;20103;-58
2021/04/16 08:31:43;;;;;;;4.10;2.20;;;9.40;93.10;;;;;;5006670;28;20029;-60
2021/04/16 08:34:39;;;;;;;4.45;2.03;;;9.40;93.10;;;;;;5004718;28;20028;-60
2021/04/16 08:37:07;;;;;;;4.85;1.90;;;9.30;93.00;;;;;;5005634;28;20026;-61
2021/04/16 08:39:35;;;;;;;4.85;1.52;;;9.40;92.10;;;;;;4998407;28;20057;-56
2021/04/16 08:42:17;;;;;;;3.15;1.88;;;9.40;92.00;;;;;;5005924;28;20046;-61
2021/04/16 08:44:58;;;;;;;4.30;1.65;;;9.60;91.40;;;;;;5016093;28;20041;-61
2021/04/16 08:47:44;;;;;;;3.30;1.70;;;9.70;91.20;;;;;;5013263;28;20018;-61
2021/04/16 08:50:10;;;;;;;4.80;1.83;;;9.50;90.40;;;;;;5016322;28;20025;-61
2021/04/16 08:52:47;;;;;;;3.97;1.73;;;9.50;90.50;;;;;;5016835;28;20552;-61
2021/04/16 08:55:19;;;;;;;3.38;1.88;;;9.70;89.80;;;;;;5015395;28;20025;-59
2021/04/16 08:57:58;;;;;;;2.25;1.67;;;9.70;91.00;;;;;;5014475;28;20034;-62
2021/04/16 09:00:54;;;;;;;2.15;1.50;;;9.90;90.90;;;;;;5007388;28;20025;-60
2021/04/16 09:03:54;;;;;;;2.33;1.60;;;10.10;88.00;;;;;;4993903;28;20042;-58
2021/04/16 09:06:46;;;;;;;3.30;1.45;;;10.20;89.20;;;;;;4998494;28;20041;-62
2021/04/16 09:09:33;;;;;;;2.92;1.50;;;10.20;88.50;;;;;;5010245;28;20034;-62
2021/04/16 09:11:58;;;;;;;5.05;1.65;;;10.60;85.90;;;;;;5018427;28;20037;-61
2021/04/16 09:14:24;;;;;;;3.60;2.00;;;10.70;83.40;;;;;;5017005;28;20047;-60
2021/04/16 09:16:51;;;;;;;5.53;2.13;;;10.90;84.80;;;;;;5006736;28;20033;-62
2021/04/16 09:19:22;;;;;;;2.25;1.60;;;11.10;83.00;;;;;;5017879;28;20695;-56
2021/04/16 09:22:07;;;;;;;1.90;1.40;;;11.10;82.20;;;;;;5017196;28;20022;-60
2021/04/16 09:24:43;;;;;;;5.05;1.80;;;11.20;79.50;;;;;;5008346;28;20033;-62
2021/04/16 09:27:36;;;;;;;2.08;1.40;;;11.30;79.10;;;;;;5012979;28;20105;-61
2021/04/16 09:30:08;;;;;;;2.50;1.80;;;11.60;79.30;;;;;;5011284;28;20025;-60
2021/04/16 09:32:41;;;;;;;5.78;2.13;;;11.90;77.10;;;;;;5008805;28;20034;-57
2021/04/16 09:35:19;;;;;;;5.40;1.70;;;11.90;76.50;;;;;;5009416;28;20510;-60
2021/04/16 09:37:49;;;;;;;3.88;1.88;;;12.20;76.70;;;;;;5009665;28;20073;-58
2021/04/16 09:40:23;;;;;;;5.30;2.22;;;11.90;74.00;;;;;;5009194;28;20034;-60
2021/04/16 09:42:53;;;;;;;3.10;2.20;;;12.00;72.60;;;;;;5008934;28;20026;-62
2021/04/16 09:45:27;;;;;;;7.40;3.10;;;11.90;72.50;;;;;;5014258;28;20053;-59
2021/04/16 09:47:56;;;;;;;4.18;1.85;;;11.80;72.90;;;;;;5013050;28;20030;-54
2021/04/16 09:50:32;;;;;;;8.48;2.30;;;11.60;72.10;;;;;;5010153;28;20514;-56
2021/04/16 09:53:10;;;;;;;4.28;2.83;;;11.50;73.90;;;;;;5011581;28;20132;-58
2021/04/16 09:56:01;;;;;;;3.88;1.88;;;11.50;73.10;;;;;;5015060;28;20033;-62
2021/04/16 09:58:38;;;;;;;7.20;2.67;;;11.60;73.10;;;;;;5013633;28;20394;-62
2021/04/16 10:01:30;;;;;;;6.80;2.03;;;11.40;72.50;;;;;;5009792;28;20418;-60
2021/04/16 10:04:00;;;;;;;4.38;2.15;;;11.20;74.60;;;;;;4974516;28;20512;-62
2021/04/16 10:06:29;;;;;;;4.35;2.42;;;11.00;75.30;;;;;;5007295;28;20516;-60
2021/04/16 10:09:16;;;;;;;4.07;2.10;;;10.90;75.90;;;;;;5014291;28;20033;-61
2021/04/16 10:12:09;;;;;;;4.20;2.78;;;10.90;75.20;;;;;;5019510;28;20026;-59
2021/04/16 10:14:37;;;;;;;4.83;2.70;;;10.70;74.50;;;;;;5000348;28;20502;-61
2021/04/16 10:17:05;;;;;;;6.22;2.50;;;10.40;73.60;;;;;;5005496;28;20029;-60
2021/04/16 10:19:35;;;;;;;10.00;2.75;;;10.20;74.30;;;;;;5019019;28;20028;-60
2021/04/16 10:22:27;;;;;;;3.47;2.15;;;9.90;75.30;;;;;;5020508;28;20045;-58
2021/04/16 12:40:26;;;;;;;4.22;2.85;;;12.00;65.10;;;;;;5017855;28;20030;-60
2021/04/16 12:42:55;;;;;;;5.03;2.28;;;11.90;63.50;;;;;;5022496;28;20096;-60
2021/04/16 12:45:21;;;;;;;7.05;2.63;;;11.90;64.90;;;;;;5015062;28;20049;-62
2021/04/16 12:47:46;;;;;;;6.00;2.30;;;11.80;63.60;;;;;;5019599;28;20058;-59
2021/04/16 12:50:15;;;;;;;8.48;2.03;;;12.00;63.40;;;;;;5015060;28;20116;-61
2021/04/16 12:52:41;;;;;;;4.18;2.10;;;11.60;64.00;;;;;;5020472;28;20113;-61
2021/04/16 12:55:07;;;;;;;5.30;1.90;;;11.80;66.30;;;;;;5007500;28;20125;-61
2021/04/16 12:57:39;;;;;;;5.53;2.28;;;12.10;65.70;;;;;;5021342;28;20033;-60
2021/04/16 13:00:19;;;;;;;4.55;1.75;;;12.20;63.20;;;;;;5014580;28;20084;-58
2021/04/16 13:02:45;;;;;;;4.93;1.98;;;12.60;64.80;;;;;;5012198;28;20022;-61
2021/04/16 13:05:13;;;;;;;3.05;1.52;;;12.90;62.30;;;;;;5001531;28;20041;-59
2021/04/16 13:07:39;;;;;;;6.20;2.70;;;13.10;57.50;;;;;;5020614;28;20030;-60
2021/04/16 13:10:16;;;;;;;7.93;1.98;;;13.10;56.90;;;;;;5013478;28;20037;-61
2021/04/16 13:12:42;;;;;;;3.03;1.90;;;13.10;57.80;;;;;;5014144;28;20038;-60
2021/04/16 13:15:08;;;;;;;2.85;1.45;;;13.00;57.40;;;;;;5011315;28;20033;-61
2021/04/16 13:17:34;;;;;;;2.92;1.83;;;13.30;55.60;;;;;;5017310;28;20040;-60
2021/04/16 13:19:59;;;;;;;10.60;1.77;;;13.20;56.70;;;;;;5012631;28;20395;-61
2021/04/16 13:22:27;;;;;;;3.28;1.60;;;13.30;53.90;;;;;;5009843;28;20029;-59
2021/04/16 13:24:54;;;;;;;4.03;2.15;;;13.30;55.90;;;;;;5010893;28;20022;-58
2021/04/16 13:27:26;;;;;;;3.35;1.55;;;13.10;56.10;;;;;;5024439;28;20021;-60
2021/04/16 13:29:52;;;;;;;2.78;1.30;;;13.30;56.80;;;;;;5013200;28;20030;-61
2021/04/16 13:32:21;;;;;;;3.45;1.58;;;13.10;52.80;;;;;;5016875;28;20519;-61
2021/04/16 13:34:47;;;;;;;4.40;1.63;;;13.00;51.50;;;;;;5018408;28;20451;-62
2021/04/16 13:37:18;;;;;;;2.63;1.63;;;13.00;51.90;;;;;;5012387;28;20693;-61
2021/04/16 13:39:45;;;;;;;2.03;1.40;;;13.00;53.90;;;;;;5021973;28;20024;-62
2021/04/16 13:42:11;;;;;;;3.08;1.70;;;12.80;54.70;;;;;;5022431;28;20018;-61
2021/04/16 13:44:37;;;;;;;6.03;1.80;;;12.70;54.70;;;;;;5023387;28;20038;-62
2021/04/16 13:47:04;;;;;;;2.90;1.83;;;12.80;54.40;;;;;;5020712;28;20026;-61
2021/04/16 13:49:34;;;;;;;3.47;1.50;;;12.80;54.20;;;;;;5015548;28;20056;-61
2021/04/16 13:52:00;;;;;;;3.78;1.52;;;12.50;54.80;;;;;;5016655;28;20033;-61
2021/04/16 13:54:25;;;;;;;4.22;1.45;;;12.60;55.00;;;;;;5014964;28;20042;-61
2021/04/16 13:56:52;;;;;;;2.58;1.52;;;12.60;56.50;;;;;;5010907;28;20022;-60
2021/04/16 13:59:18;;;;;;;3.85;1.90;;;12.60;54.50;;;;;;5010629;28;20499;-58
2021/04/16 14:01:43;;;;;;;5.78;3.85;;;12.50;53.90;;;;;;5006376;28;20096;-59
2021/04/16 14:04:23;;;;;;;6.40;1.98;;;12.30;55.30;;;;;;4996465;28;20053;-62
2021/04/16 14:06:49;;;;;;;4.70;2.67;;;12.40;56.30;;;;;;5013684;28;20176;-60
2021/04/16 14:09:19;;;;;;;5.15;2.40;;;12.20;55.10;;;;;;5017892;28;20029;-60
2021/04/16 14:11:45;;;;;;;4.38;2.42;;;12.20;55.60;;;;;;5024101;28;20033;-59
2021/04/16 14:14:19;;;;;;;4.35;2.15;;;11.90;56.40;;;;;;5012131;28;20034;-61
2021/04/16 14:16:48;;;;;;;3.92;2.38;;;11.90;57.90;;;;;;5024859;28;20390;-61
2021/04/16 14:19:19;;;;;;;5.22;2.70;;;12.00;57.30;;;;;;5013215;28;20025;-60
2021/04/16 14:21:47;;;;;;;4.07;2.20;;;12.00;58.00;;;;;;5022153;28;20025;-58
2021/04/16 14:24:14;;;;;;;4.32;1.85;;;12.20;57.70;;;;;;5010307;28;20029;-61
2021/04/16 14:26:41;;;;;;;3.30;2.08;;;12.30;58.10;;;;;;5009628;28;20026;-61
2021/04/16 14:29:07;;;;;;;4.20;1.88;;;12.10;57.40;;;;;;5021021;28;20040;-62
2021/04/16 14:31:33;;;;;;;6.03;2.28;;;12.00;58.50;;;;;;5018376;28;20025;-62
2021/04/16 14:33:58;;;;;;;4.82;2.00;;;12.00;59.50;;;;;;5008296;28;20036;-59
2021/04/16 14:36:24;;;;;;;5.43;2.42;;;12.00;59.60;;;;;;5005405;28;20018;-62
2021/04/16 14:38:50;;;;;;;6.90;2.67;;;12.10;60.80;;;;;;5005082;28;20036;-62
2021/04/16 14:41:22;;;;;;;5.65;2.30;;;12.30;59.00;;;;;;5004002;28;20041;-60
2021/04/16 14:43:48;;;;;;;3.25;1.92;;;12.30;58.60;;;;;;5007961;28;20438;-61
2021/04/16 14:46:13;;;;;;;3.92;2.67;;;12.30;60.00;;;;;;5011427;28;20037;-60
2021/04/16 14:48:39;;;;;;;4.38;2.42;;;12.20;59.40;;;;;;5011573;28;20030;-61
2021/04/16 14:51:07;;;;;;;4.43;2.17;;;12.30;59.70;;;;;;5019376;28;20025;-62
2021/04/16 14:53:40;;;;;;;7.40;2.47;;;12.30;59.00;;;;;;5012944;28;20487;-60
2021/04/16 14:56:08;;;;;;;6.38;2.50;;;12.10;58.50;;;;;;5014377;28;20034;-55
2021/04/16 14:58:41;;;;;;;3.58;2.03;;;11.90;58.80;;;;;;5012367;28;20124;-60
2021/04/16 15:01:10;;;;;;;2.78;1.98;;;11.90;56.60;;;;;;5012565;28;20036;-60
2021/04/16 15:03:36;;;;;;;5.45;2.20;;;11.90;57.40;;;;;;5011008;28;20055;-59
2021/04/16 15:06:05;;;;;;;5.68;2.20;;;11.80;57.80;;;;;;5010877;28;20026;-55
2021/04/16 15:08:40;;;;;;;4.07;2.30;;;11.90;57.90;;;;;;5019597;28;20090;-59
2021/04/16 15:11:09;;;;;;;5.50;2.38;;;12.10;58.40;;;;;;5020522;28;20026;-63
2021/04/16 15:13:36;;;;;;;6.32;2.22;;;12.40;60.30;;;;;;5014297;28;20411;-57
2021/04/16 15:16:05;;;;;;;4.82;2.63;;;12.50;58.90;;;;;;5011196;28;20079;-60
2021/04/16 15:18:35;;;;;;;7.45;3.00;;;12.50;59.60;;;;;;5008730;28;20034;-62
2021/04/16 15:21:04;;;;;;;6.97;3.15;;;12.40;57.20;;;;;;5009666;28;20029;-62
2021/04/16 15:23:29;;;;;;;6.63;3.20;;;12.30;57.80;;;;;;5015766;28;20390;-59